sensor_id;sensor_type;location;lat;lon;timestamp;pressure;altitude;pressure_sealevel;temperature;humidity
72677;BME280;60755;51.374;10.662;2023-12-20T00:02:18;96794.25;;;4.91;100.00
72677;BME280;60755;51.374;10.662;2023-12-20T00:04:46;96794.44;;;4.89;100.00
72677;BME280;60755;51.374;10.662;2023-12-20T00:07:13;96793.25;;;4.85;100.00
72677;BME280;60755;51.374;10.662;2023-12-20T00:09:40;96786.78;;;4.94;100.00
72677;BME280;60755;51.374;10.662;2023-12-20T00:12:09;96781.59;;;4.94;100.00
72677;BME280;60755;51.374;10.662;2023-12-20T00:14:36;96784.78;;;4.96;100.00
72677;BME280;60755;51.374;10.662;2023-12-20T00:17:04;96772.41;;;4.92;100.00
72677;BME280;60755;51.374;10.662;2023-12-20T00:19:31;96776.06;;;4.84;100.00
72677;BME280;60755;51.374;10.662;2023-12-20T00:21:58;96772.75;;;4.95;100.00
72677;BME280;60755;51.374;10.662;2023-12-20T00:24:26;96781.25;;;4.84;100.00
72677;BME280;60755;51.374;10.662;2023-12-20T00:26:53;96771.25;;;4.81;100.00
72677;BME280;60755;51.374;10.662;2023-12-20T00:29:22;96776.97;;;4.96;100.00
72677;BME280;60755;51.374;10.662;2023-12-20T00:31:49;96777.94;;;5.02;100.00
72677;BME280;60755;51.374;10.662;2023-12-20T00:34:16;96782.66;;;5.12;100.00
72677;BME280;60755;51.374;10.662;2023-12-20T00:36:44;96776.72;;;5.04;100.00
72677;BME280;60755;51.374;10.662;2023-12-20T00:39:11;96771.16;;;4.94;100.00
72677;BME280;60755;51.374;10.662;2023-12-20T00:41:38;96773.81;;;4.88;100.00
72677;BME280;60755;51.374;10.662;2023-12-20T00:44:05;96776.78;;;4.98;100.00
72677;BME280;60755;51.374;10.662;2023-12-20T00:46:34;96777.19;;;4.95;100.00
72677;BME280;60755;51.374;10.662;2023-12-20T00:49:01;96776.97;;;4.96;100.00
72677;BME280;60755;51.374;10.662;2023-12-20T00:51:29;96781.81;;;4.93;100.00
72677;BME280;60755;51.374;10.662;2023-12-20T00:53:56;96771.03;;;4.89;100.00
72677;BME280;60755;51.374;10.662;2023-12-20T00:56:23;96768.75;;;4.99;100.00
72677;BME280;60755;51.374;10.662;2023-12-20T00:58:50;96766.50;;;5.03;100.00
72677;BME280;60755;51.374;10.662;2023-12-20T01:01:17;96771.25;;;4.81;100.00
72677;BME280;60755;51.374;10.662;2023-12-20T01:03:46;96758.69;;;5.03;100.00
72677;BME280;60755;51.374;10.662;2023-12-20T01:06:14;96764.09;;;5.33;100.00
72677;BME280;60755;51.374;10.662;2023-12-20T01:08:41;96765.47;;;5.36;100.00
72677;BME280;60755;51.374;10.662;2023-12-20T01:11:09;96765.03;;;5.14;100.00
72677;BME280;60755;51.374;10.662;2023-12-20T01:13:36;96775.47;;;5.14;100.00
72677;BME280;60755;51.374;10.662;2023-12-20T01:16:03;96751.53;;;4.98;100.00
72677;BME280;60755;51.374;10.662;2023-12-20T01:18:31;96761.56;;;4.95;100.00
72677;BME280;60755;51.374;10.662;2023-12-20T01:21:02;96756.56;;;4.93;100.00
72677;BME280;60755;51.374;10.662;2023-12-20T01:23:30;96752.28;;;4.74;100.00
72677;BME280;60755;51.374;10.662;2023-12-20T01:25:57;96754.31;;;4.97;100.00
72677;BME280;60755;51.374;10.662;2023-12-20T01:28:25;96762.03;;;4.85;100.00
72677;BME280;60755;51.374;10.662;2023-12-20T01:30:53;96752.63;;;4.84;100.00
72677;BME280;60755;51.374;10.662;2023-12-20T01:33:20;96757.25;;;4.82;100.00
72677;BME280;60755;51.374;10.662;2023-12-20T01:35:47;96751.13;;;4.95;100.00
72677;BME280;60755;51.374;10.662;2023-12-20T01:38:16;96744.31;;;5.00;100.00
72677;BME280;60755;51.374;10.662;2023-12-20T01:40:44;96745.13;;;4.94;100.00
72677;BME280;60755;51.374;10.662;2023-12-20T01:43:11;96742.72;;;4.99;100.00
72677;BME280;60755;51.374;10.662;2023-12-20T01:45:39;96745.00;;;5.14;100.00
72677;BME280;60755;51.374;10.662;2023-12-20T01:48:08;96751.41;;;5.12;100.00
72677;BME280;60755;51.374;10.662;2023-12-20T01:50:36;96747.81;;;5.13;100.00
72677;BME280;60755;51.374;10.662;2023-12-20T01:53:05;96743.19;;;4.90;100.00
72677;BME280;60755;51.374;10.662;2023-12-20T01:55:35;96742.84;;;5.04;100.00
72677;BME280;60755;51.374;10.662;2023-12-20T01:58:03;96752.22;;;5.12;100.00
72677;BME280;60755;51.374;10.662;2023-12-20T02:00:31;96746.59;;;5.15;100.00
72677;BME280;60755;51.374;10.662;2023-12-20T02:03:01;96741.97;;;5.17;100.00
72677;BME280;60755;51.374;10.662;2023-12-20T02:05:29;96740.91;;;5.25;100.00
72677;BME280;60755;51.374;10.662;2023-12-20T02:07:57;96732.34;;;5.18;100.00
72677;BME280;60755;51.374;10.662;2023-12-20T02:10:24;96730.50;;;5.25;100.00
72677;BME280;60755;51.374;10.662;2023-12-20T02:12:53;96725.50;;;5.23;100.00
72677;BME280;60755;51.374;10.662;2023-12-20T02:15:20;96716.16;;;5.16;100.00
72677;BME280;60755;51.374;10.662;2023-12-20T02:17:48;96721.34;;;5.16;100.00
72677;BME280;60755;51.374;10.662;2023-12-20T02:20:16;96729.47;;;5.26;100.00
72677;BME280;60755;51.374;10.662;2023-12-20T02:22:44;96721.09;;;5.24;100.00
72677;BME280;60755;51.374;10.662;2023-12-20T02:25:12;96715.97;;;5.36;100.00
72677;BME280;60755;51.374;10.662;2023-12-20T02:27:39;96728.06;;;5.30;100.00
72677;BME280;60755;51.374;10.662;2023-12-20T02:30:07;96716.41;;;5.32;100.00
72677;BME280;60755;51.374;10.662;2023-12-20T02:32:35;96717.25;;;5.26;100.00
72677;BME280;60755;51.374;10.662;2023-12-20T02:35:02;96709.41;;;5.51;100.00
72677;BME280;60755;51.374;10.662;2023-12-20T02:37:29;96718.72;;;5.41;100.00
72677;BME280;60755;51.374;10.662;2023-12-20T02:39:58;96716.75;;;5.36;100.00
72677;BME280;60755;51.374;10.662;2023-12-20T02:42:25;96719.34;;;5.36;100.00
72677;BME280;60755;51.374;10.662;2023-12-20T02:44:52;96713.22;;;5.30;100.00
72677;BME280;60755;51.374;10.662;2023-12-20T02:47:19;96715.91;;;5.42;100.00
72677;BME280;60755;51.374;10.662;2023-12-20T02:49:47;96714.88;;;5.25;100.00
72677;BME280;60755;51.374;10.662;2023-12-20T02:52:15;96714.00;;;5.31;100.00
72677;BME280;60755;51.374;10.662;2023-12-20T02:54:42;96724.56;;;5.36;100.00
72677;BME280;60755;51.374;10.662;2023-12-20T02:57:10;96712.72;;;5.40;100.00
72677;BME280;60755;51.374;10.662;2023-12-20T02:59:38;96719.63;;;5.28;100.00
72677;BME280;60755;51.374;10.662;2023-12-20T03:02:05;96717.78;;;5.35;100.00
72677;BME280;60755;51.374;10.662;2023-12-20T03:04:32;96709.59;;;5.31;100.00
72677;BME280;60755;51.374;10.662;2023-12-20T03:06:59;96721.72;;;5.19;100.00
72677;BME280;60755;51.374;10.662;2023-12-20T03:09:26;96718.97;;;5.14;100.00
72677;BME280;60755;51.374;10.662;2023-12-20T03:11:54;96727.31;;;4.98;100.00
72677;BME280;60755;51.374;10.662;2023-12-20T03:14:22;96727.19;;;5.11;100.00
72677;BME280;60755;51.374;10.662;2023-12-20T03:16:50;96726.50;;;4.97;100.00
72677;BME280;60755;51.374;10.662;2023-12-20T03:19:18;96730.50;;;5.25;100.00
72677;BME280;60755;51.374;10.662;2023-12-20T03:21:45;96725.72;;;5.22;100.00
72677;BME280;60755;51.374;10.662;2023-12-20T03:24:13;96737.03;;;5.09;100.00
72677;BME280;60755;51.374;10.662;2023-12-20T03:26:40;96734.19;;;5.11;100.00
72677;BME280;60755;51.374;10.662;2023-12-20T03:29:07;96741.41;;;5.15;100.00
72677;BME280;60755;51.374;10.662;2023-12-20T03:31:36;96740.66;;;5.08;100.00
72677;BME280;60755;51.374;10.662;2023-12-20T03:34:03;96726.56;;;5.16;100.00
72677;BME280;60755;51.374;10.662;2023-12-20T03:36:30;96732.34;;;5.18;100.00
72677;BME280;60755;51.374;10.662;2023-12-20T03:38:57;96724.63;;;5.04;100.00
72677;BME280;60755;51.374;10.662;2023-12-20T03:41:25;96720.16;;;5.12;100.00
72677;BME280;60755;51.374;10.662;2023-12-20T03:43:52;96719.31;;;5.18;100.00
72677;BME280;60755;51.374;10.662;2023-12-20T03:46:19;96703.97;;;5.10;99.25
72677;BME280;60755;51.374;10.662;2023-12-20T03:48:48;96712.75;;;4.90;100.00
72677;BME280;60755;51.374;10.662;2023-12-20T03:51:15;96723.56;;;4.87;100.00
72677;BME280;60755;51.374;10.662;2023-12-20T03:53:42;96731.16;;;4.89;100.00
72677;BME280;60755;51.374;10.662;2023-12-20T03:56:09;96728.25;;;5.03;100.00
72677;BME280;60755;51.374;10.662;2023-12-20T03:58:37;96724.47;;;4.99;100.00
72677;BME280;60755;51.374;10.662;2023-12-20T04:01:09;96732.50;;;4.98;100.00
72677;BME280;60755;51.374;10.662;2023-12-20T04:03:37;96737.03;;;5.09;100.00
72677;BME280;60755;51.374;10.662;2023-12-20T04:06:06;96740.75;;;4.88;100.00
72677;BME280;60755;51.374;10.662;2023-12-20T04:08:33;96739.91;;;4.69;100.00
72677;BME280;60755;51.374;10.662;2023-12-20T04:11:01;96738.28;;;4.75;100.00
72677;BME280;60755;51.374;10.662;2023-12-20T04:13:28;96732.34;;;4.61;100.00
72677;BME280;60755;51.374;10.662;2023-12-20T04:15:55;96724.84;;;4.71;100.00
72677;BME280;60755;51.374;10.662;2023-12-20T04:18:22;96732.81;;;4.83;100.00
72677;BME280;60755;51.374;10.662;2023-12-20T04:20:50;96716.34;;;4.89;100.00
72677;BME280;60755;51.374;10.662;2023-12-20T04:23:18;96724.06;;;4.71;100.00
72677;BME280;60755;51.374;10.662;2023-12-20T04:25:46;96730.81;;;4.78;100.00
72677;BME280;60755;51.374;10.662;2023-12-20T04:28:13;96731.53;;;4.61;100.00
72677;BME280;60755;51.374;10.662;2023-12-20T04:30:41;96737.38;;;4.88;100.00
72677;BME280;60755;51.374;10.662;2023-12-20T04:33:09;96739.19;;;4.87;100.00
72677;BME280;60755;51.374;10.662;2023-12-20T04:35:36;96751.00;;;4.90;100.00
72677;BME280;60755;51.374;10.662;2023-12-20T04:38:03;96750.84;;;4.78;100.00
72677;BME280;60755;51.374;10.662;2023-12-20T04:40:32;96747.25;;;4.79;100.00
72677;BME280;60755;51.374;10.662;2023-12-20T04:42:59;96749.97;;;4.91;100.00
72677;BME280;60755;51.374;10.662;2023-12-20T04:45:26;96739.59;;;4.84;100.00
72677;BME280;60755;51.374;10.662;2023-12-20T04:47:55;96738.13;;;4.63;100.00
72677;BME280;60755;51.374;10.662;2023-12-20T04:50:22;96742.94;;;4.66;99.80
72677;BME280;60755;51.374;10.662;2023-12-20T04:52:49;96737.84;;;4.78;99.55
72677;BME280;60755;51.374;10.662;2023-12-20T04:55:17;96734.97;;;4.86;99.57
72677;BME280;60755;51.374;10.662;2023-12-20T04:57:45;96746.84;;;4.82;98.95
72677;BME280;60755;51.374;10.662;2023-12-20T05:00:13;96733.66;;;5.02;99.41
72677;BME280;60755;51.374;10.662;2023-12-20T05:02:41;96737.53;;;4.93;99.00
72677;BME280;60755;51.374;10.662;2023-12-20T05:05:08;96734.47;;;4.71;99.09
72677;BME280;60755;51.374;10.662;2023-12-20T05:07:35;96728.59;;;4.51;98.58
72677;BME280;60755;51.374;10.662;2023-12-20T05:10:03;96737.97;;;4.58;98.73
72677;BME280;60755;51.374;10.662;2023-12-20T05:12:31;96741.47;;;4.32;99.68
72677;BME280;60755;51.374;10.662;2023-12-20T05:15:00;96742.91;;;4.28;99.04
72677;BME280;60755;51.374;10.662;2023-12-20T05:17:27;96741.44;;;4.39;99.24
72677;BME280;60755;51.374;10.662;2023-12-20T05:19:54;96746.97;;;4.56;98.70
72677;BME280;60755;51.374;10.662;2023-12-20T05:22:21;96753.44;;;4.46;98.78
72677;BME280;60755;51.374;10.662;2023-12-20T05:24:48;96750.66;;;4.41;99.69
72677;BME280;60755;51.374;10.662;2023-12-20T05:27:16;96749.03;;;4.40;99.40
72677;BME280;60755;51.374;10.662;2023-12-20T05:29:43;96751.81;;;4.84;99.17
72677;BME280;60755;51.374;10.662;2023-12-20T05:32:11;96747.75;;;4.56;97.53
72677;BME280;60755;51.374;10.662;2023-12-20T05:34:39;96747.16;;;4.61;97.37
72677;BME280;60755;51.374;10.662;2023-12-20T05:37:06;96760.75;;;4.63;95.92
72677;BME280;60755;51.374;10.662;2023-12-20T05:39:33;96756.13;;;4.65;94.49
72677;BME280;60755;51.374;10.662;2023-12-20T05:42:00;96756.31;;;4.70;95.25
72677;BME280;60755;51.374;10.662;2023-12-20T05:44:27;96772.63;;;4.52;96.29
72677;BME280;60755;51.374;10.662;2023-12-20T05:46:55;96760.13;;;4.67;95.22
72677;BME280;60755;51.374;10.662;2023-12-20T05:49:23;96762.25;;;4.39;95.35
72677;BME280;60755;51.374;10.662;2023-12-20T05:51:50;96756.25;;;4.45;96.35
72677;BME280;60755;51.374;10.662;2023-12-20T05:54:18;96761.47;;;4.38;96.34
72677;BME280;60755;51.374;10.662;2023-12-20T05:56:45;96765.84;;;4.44;96.38
72677;BME280;60755;51.374;10.662;2023-12-20T05:59:12;96751.09;;;4.32;96.56
72677;BME280;60755;51.374;10.662;2023-12-20T06:01:40;96741.44;;;4.39;95.17
72677;BME280;60755;51.374;10.662;2023-12-20T06:04:07;96738.97;;;4.19;96.01
72677;BME280;60755;51.374;10.662;2023-12-20T06:06:40;96750.03;;;3.95;96.52
72677;BME280;60755;51.374;10.662;2023-12-20T06:09:07;96746.81;;;3.92;96.80
72677;BME280;60755;51.374;10.662;2023-12-20T06:11:35;96753.25;;;3.83;97.16
72677;BME280;60755;51.374;10.662;2023-12-20T06:14:02;96752.66;;;3.81;97.29
72677;BME280;60755;51.374;10.662;2023-12-20T06:16:29;96742.81;;;3.97;97.64
72677;BME280;60755;51.374;10.662;2023-12-20T06:18:56;96732.41;;;4.10;97.89
72677;BME280;60755;51.374;10.662;2023-12-20T06:21:23;96732.09;;;4.31;95.56
72677;BME280;60755;51.374;10.662;2023-12-20T06:23:52;96736.38;;;4.12;95.61
72677;BME280;60755;51.374;10.662;2023-12-20T06:26:20;96748.56;;;4.18;96.30
72677;BME280;60755;51.374;10.662;2023-12-20T06:28:47;96759.97;;;4.17;95.65
72677;BME280;60755;51.374;10.662;2023-12-20T06:31:15;96744.28;;;4.37;96.04
72677;BME280;60755;51.374;10.662;2023-12-20T06:33:42;96752.31;;;4.29;95.21
72677;BME280;60755;51.374;10.662;2023-12-20T06:36:11;96757.94;;;4.19;95.45
72677;BME280;60755;51.374;10.662;2023-12-20T06:38:38;96735.31;;;4.27;95.85
72677;BME280;60755;51.374;10.662;2023-12-20T06:41:06;96740.25;;;4.41;96.35
72677;BME280;60755;51.374;10.662;2023-12-20T06:43:34;96732.31;;;4.23;96.88
72677;BME280;60755;51.374;10.662;2023-12-20T06:46:01;96740.28;;;4.35;96.42
72677;BME280;60755;51.374;10.662;2023-12-20T06:48:28;96739.78;;;4.58;95.68
72677;BME280;60755;51.374;10.662;2023-12-20T06:50:55;96742.25;;;4.39;95.36
72677;BME280;60755;51.374;10.662;2023-12-20T06:53:22;96744.28;;;4.37;94.99
72677;BME280;60755;51.374;10.662;2023-12-20T06:55:50;96746.44;;;4.40;95.42
72677;BME280;60755;51.374;10.662;2023-12-20T06:58:19;96745.56;;;4.60;94.99
72677;BME280;60755;51.374;10.662;2023-12-20T07:00:46;96737.91;;;4.65;95.05
72677;BME280;60755;51.374;10.662;2023-12-20T07:03:14;96738.41;;;4.48;93.88
72677;BME280;60755;51.374;10.662;2023-12-20T07:05:41;96731.00;;;4.52;93.69
72677;BME280;60755;51.374;10.662;2023-12-20T07:08:08;96740.56;;;4.58;94.51
72677;BME280;60755;51.374;10.662;2023-12-20T07:10:36;96747.66;;;4.76;91.96
72677;BME280;60755;51.374;10.662;2023-12-20T07:13:03;96746.19;;;4.87;90.84
72677;BME280;60755;51.374;10.662;2023-12-20T07:15:32;96746.97;;;4.87;90.57
72677;BME280;60755;51.374;10.662;2023-12-20T07:17:59;96750.47;;;4.74;90.58
72677;BME280;60755;51.374;10.662;2023-12-20T07:20:27;96749.69;;;4.74;91.36
72677;BME280;60755;51.374;10.662;2023-12-20T07:22:54;96748.50;;;4.70;91.58
72677;BME280;60755;51.374;10.662;2023-12-20T07:25:21;96728.09;;;4.67;92.40
72677;BME280;60755;51.374;10.662;2023-12-20T07:27:49;96735.66;;;4.75;90.99
72677;BME280;60755;51.374;10.662;2023-12-20T07:30:16;96736.50;;;4.69;91.58
72677;BME280;60755;51.374;10.662;2023-12-20T07:32:44;96736.78;;;4.86;90.79
72677;BME280;60755;51.374;10.662;2023-12-20T07:35:13;96729.78;;;4.86;89.63
72677;BME280;60755;51.374;10.662;2023-12-20T07:37:40;96727.16;;;4.55;90.97
72677;BME280;60755;51.374;10.662;2023-12-20T07:40:08;96729.84;;;4.41;91.99
72677;BME280;60755;51.374;10.662;2023-12-20T07:42:35;96734.63;;;4.44;91.32
72677;BME280;60755;51.374;10.662;2023-12-20T07:45:03;96739.69;;;4.33;91.17
72677;BME280;60755;51.374;10.662;2023-12-20T07:47:31;96731.50;;;4.29;92.23
72677;BME280;60755;51.374;10.662;2023-12-20T07:49:59;96735.00;;;4.48;91.51
72677;BME280;60755;51.374;10.662;2023-12-20T07:52:27;96736.78;;;4.86;90.57
72677;BME280;60755;51.374;10.662;2023-12-20T07:54:54;96735.44;;;4.76;90.71
72677;BME280;60755;51.374;10.662;2023-12-20T07:57:21;96756.81;;;4.85;90.00
72677;BME280;60755;51.374;10.662;2023-12-20T07:59:48;96752.03;;;4.82;90.72
72677;BME280;60755;51.374;10.662;2023-12-20T08:02:16;96754.50;;;4.70;91.99
72677;BME280;60755;51.374;10.662;2023-12-20T08:04:43;96747.50;;;4.71;92.73
72677;BME280;60755;51.374;10.662;2023-12-20T08:07:11;96758.63;;;4.46;92.88
72677;BME280;60755;51.374;10.662;2023-12-20T08:09:39;96755.19;;;4.53;93.36
72677;BME280;60755;51.374;10.662;2023-12-20T08:12:07;96759.09;;;4.30;94.03
72677;BME280;60755;51.374;10.662;2023-12-20T08:14:35;96752.34;;;4.61;94.85
72677;BME280;60755;51.374;10.662;2023-12-20T08:17:03;96750.38;;;4.56;93.81
72677;BME280;60755;51.374;10.662;2023-12-20T08:19:30;96745.47;;;4.41;94.28
72677;BME280;60755;51.374;10.662;2023-12-20T08:21:57;96749.09;;;4.34;93.79
72677;BME280;60755;51.374;10.662;2023-12-20T08:24:25;96753.50;;;4.33;94.11
72677;BME280;60755;51.374;10.662;2023-12-20T08:26:53;96751.56;;;4.60;92.49
72677;BME280;60755;51.374;10.662;2023-12-20T08:29:20;96766.13;;;4.68;92.31
72677;BME280;60755;51.374;10.662;2023-12-20T08:31:52;96765.81;;;4.89;91.83
72677;BME280;60755;51.374;10.662;2023-12-20T08:34:19;96764.13;;;5.01;92.11
72677;BME280;60755;51.374;10.662;2023-12-20T08:36:46;96768.63;;;4.81;92.95
72677;BME280;60755;51.374;10.662;2023-12-20T08:39:14;96761.72;;;4.68;93.87
72677;BME280;60755;51.374;10.662;2023-12-20T08:41:42;96766.53;;;4.65;93.53
72677;BME280;60755;51.374;10.662;2023-12-20T08:44:10;96765.66;;;4.77;93.19
72677;BME280;60755;51.374;10.662;2023-12-20T08:46:37;96769.28;;;4.76;92.78
72677;BME280;60755;51.374;10.662;2023-12-20T08:49:04;96779.91;;;5.07;91.42
72677;BME280;60755;51.374;10.662;2023-12-20T08:51:32;96770.25;;;5.14;91.63
72677;BME280;60755;51.374;10.662;2023-12-20T08:53:59;96772.50;;;5.03;91.65
72677;BME280;60755;51.374;10.662;2023-12-20T08:56:26;96786.78;;;4.94;91.00
72677;BME280;60755;51.374;10.662;2023-12-20T08:58:55;96791.03;;;5.20;91.99
72677;BME280;60755;51.374;10.662;2023-12-20T09:01:22;96799.44;;;5.22;90.48
72677;BME280;60755;51.374;10.662;2023-12-20T09:03:49;96795.78;;;5.30;91.01
72677;BME280;60755;51.374;10.662;2023-12-20T09:06:16;96796.41;;;4.94;92.22
72677;BME280;60755;51.374;10.662;2023-12-20T09:08:44;96786.78;;;4.94;91.98
72677;BME280;60755;51.374;10.662;2023-12-20T09:11:11;96800.50;;;4.83;93.34
72677;BME280;60755;51.374;10.662;2023-12-20T09:13:38;96798.47;;;5.17;93.06
72677;BME280;60755;51.374;10.662;2023-12-20T09:16:08;96794.94;;;5.04;91.84
72677;BME280;60755;51.374;10.662;2023-12-20T09:18:35;96790.53;;;5.05;92.77
72677;BME280;60755;51.374;10.662;2023-12-20T09:21:03;96786.88;;;5.13;92.11
72677;BME280;60755;51.374;10.662;2023-12-20T09:23:30;96793.88;;;5.12;90.92
72677;BME280;60755;51.374;10.662;2023-12-20T09:25:57;96792.97;;;5.31;90.32
72677;BME280;60755;51.374;10.662;2023-12-20T09:28:24;96791.69;;;5.41;90.52
72677;BME280;60755;51.374;10.662;2023-12-20T09:30:52;96785.81;;;5.70;89.55
72677;BME280;60755;51.374;10.662;2023-12-20T09:33:20;96791.28;;;5.37;89.01
72677;BME280;60755;51.374;10.662;2023-12-20T09:35:47;96787.78;;;5.75;87.41
72677;BME280;60755;51.374;10.662;2023-12-20T09:38:15;96797.78;;;5.78;87.50
72677;BME280;60755;51.374;10.662;2023-12-20T09:40:43;96794.16;;;5.79;87.41
72677;BME280;60755;51.374;10.662;2023-12-20T09:43:11;96782.28;;;5.83;87.27
72677;BME280;60755;51.374;10.662;2023-12-20T09:45:41;96792.84;;;5.70;86.88
72677;BME280;60755;51.374;10.662;2023-12-20T09:48:12;96786.34;;;5.79;87.43
72677;BME280;60755;51.374;10.662;2023-12-20T09:50:42;96782.56;;;5.75;86.78
72677;BME280;60755;51.374;10.662;2023-12-20T09:53:12;96779.00;;;5.69;87.12
72677;BME280;60755;51.374;10.662;2023-12-20T09:55:42;96777.03;;;5.65;88.47
72677;BME280;60755;51.374;10.662;2023-12-20T09:58:09;96767.38;;;5.90;87.38
72677;BME280;60755;51.374;10.662;2023-12-20T10:00:36;96758.75;;;5.71;87.72
72677;BME280;60755;51.374;10.662;2023-12-20T10:03:06;96765.88;;;5.57;88.83
72677;BME280;60755;51.374;10.662;2023-12-20T10:05:34;96773.50;;;5.77;89.96
72677;BME280;60755;51.374;10.662;2023-12-20T10:08:03;96762.94;;;5.72;89.82
72677;BME280;60755;51.374;10.662;2023-12-20T10:10:30;96757.53;;;5.49;90.39
72677;BME280;60755;51.374;10.662;2023-12-20T10:13:02;96756.25;;;5.58;90.52
72677;BME280;60755;51.374;10.662;2023-12-20T10:15:30;96754.03;;;5.80;90.23
72677;BME280;60755;51.374;10.662;2023-12-20T10:17:57;96742.09;;;5.72;89.89
72677;BME280;60755;51.374;10.662;2023-12-20T10:20:25;96741.25;;;5.53;90.26
72677;BME280;60755;51.374;10.662;2023-12-20T10:22:54;96728.25;;;5.90;91.01
72677;BME280;60755;51.374;10.662;2023-12-20T10:25:23;96736.09;;;5.90;90.08
72677;BME280;60755;51.374;10.662;2023-12-20T10:28:08;96732.88;;;5.95;89.83
72677;BME280;60755;51.374;10.662;2023-12-20T10:30:36;96726.25;;;5.92;88.85
72677;BME280;60755;51.374;10.662;2023-12-20T10:33:05;96731.06;;;5.95;89.72
72677;BME280;60755;51.374;10.662;2023-12-20T10:35:33;96717.00;;;5.96;89.64
72677;BME280;60755;51.374;10.662;2023-12-20T10:38:04;96715.88;;;5.85;90.45
72677;BME280;60755;51.374;10.662;2023-12-20T10:40:34;96704.50;;;5.80;89.13
72677;BME280;60755;51.374;10.662;2023-12-20T10:43:02;96709.00;;;5.73;89.22
72677;BME280;60755;51.374;10.662;2023-12-20T10:45:30;96708.78;;;5.74;88.37
72677;BME280;60755;51.374;10.662;2023-12-20T10:47:58;96696.19;;;5.89;88.12
72677;BME280;60755;51.374;10.662;2023-12-20T10:50:27;96698.97;;;5.95;86.95
72677;BME280;60755;51.374;10.662;2023-12-20T10:52:57;96714.03;;;6.11;86.58
72677;BME280;60755;51.374;10.662;2023-12-20T10:55:25;96697.56;;;6.10;86.49
72677;BME280;60755;51.374;10.662;2023-12-20T10:57:54;96692.66;;;6.02;86.73
72677;BME280;60755;51.374;10.662;2023-12-20T11:00:25;96694.75;;;6.12;86.77
72677;BME280;60755;51.374;10.662;2023-12-20T11:02:53;96699.88;;;6.00;86.15
72677;BME280;60755;51.374;10.662;2023-12-20T11:05:28;96680.94;;;6.23;85.64
72677;BME280;60755;51.374;10.662;2023-12-20T11:08:02;96689.06;;;6.15;85.84
72677;BME280;60755;51.374;10.662;2023-12-20T11:10:42;96686.16;;;6.53;84.90
72677;BME280;60755;51.374;10.662;2023-12-20T11:13:17;96686.31;;;6.70;84.77
72677;BME280;60755;51.374;10.662;2023-12-20T11:15:47;96672.66;;;6.98;85.73
72677;BME280;60755;51.374;10.662;2023-12-20T11:18:14;96664.00;;;6.86;83.44
72677;BME280;60755;51.374;10.662;2023-12-20T11:20:42;96666.94;;;6.66;85.61
72677;BME280;60755;51.374;10.662;2023-12-20T11:23:09;96671.28;;;6.84;84.11
72677;BME280;60755;51.374;10.662;2023-12-20T11:25:52;96675.69;;;6.95;84.60
72677;BME280;60755;51.374;10.662;2023-12-20T11:28:23;96663.75;;;6.34;84.49
72677;BME280;60755;51.374;10.662;2023-12-20T11:30:52;96663.16;;;6.62;86.46
72677;BME280;60755;51.374;10.662;2023-12-20T11:33:23;96662.59;;;6.71;85.15
72677;BME280;60755;51.374;10.662;2023-12-20T11:35:50;96668.22;;;6.45;85.58
72677;BME280;60755;51.374;10.662;2023-12-20T11:38:20;96646.00;;;6.54;85.93
72677;BME280;60755;51.374;10.662;2023-12-20T11:40:48;96651.91;;;6.61;87.45
72677;BME280;60755;51.374;10.662;2023-12-20T11:43:31;96651.13;;;6.61;86.30
72677;BME280;60755;51.374;10.662;2023-12-20T11:46:03;96646.38;;;6.69;85.72
72677;BME280;60755;51.374;10.662;2023-12-20T11:48:31;96641.34;;;6.56;86.25
72677;BME280;60755;51.374;10.662;2023-12-20T11:50:59;96645.94;;;6.31;85.89
72677;BME280;60755;51.374;10.662;2023-12-20T11:53:26;96646.81;;;6.25;86.73
72677;BME280;60755;51.374;10.662;2023-12-20T11:55:54;96628.19;;;6.21;86.66
72677;BME280;60755;51.374;10.662;2023-12-20T11:58:21;96636.47;;;6.18;85.85
72677;BME280;60755;51.374;10.662;2023-12-20T12:00:51;96625.56;;;6.51;85.24
72677;BME280;60755;51.374;10.662;2023-12-20T12:03:18;96628.06;;;6.16;85.87
72677;BME280;60755;51.374;10.662;2023-12-20T12:05:47;96621.69;;;6.42;85.53
72677;BME280;60755;51.374;10.662;2023-12-20T12:08:14;96631.44;;;6.35;86.22
72677;BME280;60755;51.374;10.662;2023-12-20T12:10:42;96605.38;;;6.58;86.30
72677;BME280;60755;51.374;10.662;2023-12-20T12:13:09;96615.66;;;6.41;85.65
72677;BME280;60755;51.374;10.662;2023-12-20T12:15:37;96615.16;;;6.21;86.32
72677;BME280;60755;51.374;10.662;2023-12-20T12:18:07;96607.34;;;6.33;86.47
72677;BME280;60755;51.374;10.662;2023-12-20T12:20:34;96604.56;;;6.46;87.55
72677;BME280;60755;51.374;10.662;2023-12-20T12:23:02;96594.44;;;6.38;85.97
72677;BME280;60755;51.374;10.662;2023-12-20T12:25:32;96582.88;;;6.34;87.15
72677;BME280;60755;51.374;10.662;2023-12-20T12:27:59;96590.44;;;6.24;88.54
72677;BME280;60755;51.374;10.662;2023-12-20T12:30:26;96570.66;;;6.16;88.25
72677;BME280;60755;51.374;10.662;2023-12-20T12:32:56;96583.91;;;6.03;88.52
72677;BME280;60755;51.374;10.662;2023-12-20T12:35:25;96577.22;;;6.07;88.31
72677;BME280;60755;51.374;10.662;2023-12-20T12:37:52;96569.97;;;6.09;88.31
72677;BME280;60755;51.374;10.662;2023-12-20T12:40:19;96568.03;;;6.04;88.19
72677;BME280;60755;51.374;10.662;2023-12-20T12:42:47;96553.28;;;5.98;89.93
72677;BME280;60755;51.374;10.662;2023-12-20T12:45:14;96560.97;;;5.93;89.95
72677;BME280;60755;51.374;10.662;2023-12-20T12:47:41;96559.09;;;5.82;90.74
72677;BME280;60755;51.374;10.662;2023-12-20T12:50:09;96547.06;;;5.81;90.54
72677;BME280;60755;51.374;10.662;2023-12-20T12:52:37;96551.97;;;5.89;90.20
72677;BME280;60755;51.374;10.662;2023-12-20T12:55:05;96544.59;;;5.86;91.44
72677;BME280;60755;51.374;10.662;2023-12-20T12:57:32;96542.88;;;5.80;92.18
72677;BME280;60755;51.374;10.662;2023-12-20T13:00:00;96539.56;;;5.73;91.50
72677;BME280;60755;51.374;10.662;2023-12-20T13:02:28;96540.91;;;5.75;92.19